createdAt,value
2023-04-01T00:02:10.547Z,94910.69
2023-04-01T00:05:12.406Z,94907.53
2023-04-01T00:08:14.392Z,94912.53
2023-04-01T00:11:16.952Z,94894.06
2023-04-01T00:14:18.698Z,94902.72
2023-04-01T00:17:20.382Z,94890.22
2023-04-01T00:20:22.787Z,94881.59
2023-04-01T00:23:24.450Z,94890.03
2023-04-01T00:26:27.558Z,94888.38
2023-04-01T00:29:31.506Z,94892.72
2023-04-01T00:32:33.221Z,94886.09
2023-04-01T00:35:35.743Z,94893.06
2023-04-01T00:38:38.933Z,94893.72
2023-04-01T00:41:41.229Z,94897.56
2023-04-01T00:44:43.487Z,94893.53
2023-04-01T00:47:45.314Z,94881.78
2023-04-01T00:50:53.391Z,94884.91
2023-04-01T00:53:57.983Z,94886.94
2023-04-01T00:57:05.036Z,94887.75
2023-04-01T01:00:10.976Z,94881.59
2023-04-01T01:03:14.194Z,94886.75
2023-04-01T01:06:41.944Z,94885.44
2023-04-01T01:09:56.394Z,94889.25
2023-04-01T01:13:48.605Z,94875.91
2023-04-01T01:17:02.329Z,94887.56
2023-04-01T01:20:34.330Z,94879.59
2023-04-01T01:23:58.641Z,94878.78
2023-04-01T01:27:07.979Z,94869.16
2023-04-01T01:30:16.517Z,94866.66
2023-04-01T01:33:48.761Z,94875.81
2023-04-01T01:36:57.413Z,94882.78
2023-04-01T01:40:08.593Z,94879.47
2023-04-01T01:43:17.407Z,94879.47
2023-04-01T01:46:23.678Z,94857.72
2023-04-01T01:49:26.425Z,94871.47
2023-04-01T01:52:32.012Z,94873.69
2023-04-01T01:55:36.901Z,94871.03
2023-04-01T01:58:59.772Z,94864.22
2023-04-01T02:02:26.832Z,94871.56
2023-04-01T02:05:31.881Z,94856.66
2023-04-01T02:08:52.330Z,94862.97
2023-04-01T02:11:58.447Z,94857.00
2023-04-01T02:15:13.395Z,94871.47
2023-04-01T02:18:17.036Z,94862.03
2023-04-01T02:21:21.832Z,94881.63
2023-04-01T02:24:25.795Z,94876.00
2023-04-01T02:27:27.512Z,94874.47
2023-04-01T02:30:32.795Z,94889.59
2023-04-01T02:33:34.944Z,94895.91
2023-04-01T02:36:39.036Z,94881.16
2023-04-01T02:39:44.078Z,94890.97
2023-04-01T02:42:47.104Z,94907.06
2023-04-01T02:45:55.387Z,94892.28
2023-04-01T02:48:59.092Z,94895.94
2023-04-01T02:52:02.702Z,94887.50
2023-04-01T02:55:07.080Z,94897.66
2023-04-01T02:58:12.713Z,94905.31
2023-04-01T03:01:15.880Z,94911.78
2023-04-01T03:04:17.502Z,94921.13
2023-04-01T03:07:19.117Z,94904.69
2023-04-01T03:10:21.305Z,94906.03
2023-04-01T03:13:22.973Z,94905.22
2023-04-01T03:16:24.627Z,94903.72
2023-04-01T03:19:26.537Z,94908.72
2023-04-01T03:22:28.137Z,94918.34
2023-04-01T03:25:31.798Z,94919.88
2023-04-01T03:28:33.990Z,94918.38
2023-04-01T03:31:36.352Z,94922.69
2023-04-01T03:34:40.086Z,94909.06
2023-04-01T03:37:41.946Z,94919.88
2023-04-01T03:40:44.358Z,94933.63
2023-04-01T03:43:46.563Z,94928.47
2023-04-01T03:46:48.229Z,94927.31
2023-04-01T03:49:50.726Z,94923.81
2023-04-01T03:52:52.510Z,94927.31
2023-04-01T03:55:54.680Z,94941.41
2023-04-01T03:58:56.344Z,94925.81
2023-04-01T04:01:58.137Z,94925.00
2023-04-01T04:04:59.724Z,94920.34
2023-04-01T04:08:04.100Z,94916.03
2023-04-01T04:11:06.978Z,94928.81
2023-04-01T04:14:12.482Z,94934.13
2023-04-01T04:17:17.186Z,94931.47
2023-04-01T04:20:19.381Z,94933.97
2023-04-01T04:23:21.294Z,94920.34
2023-04-01T04:26:23.072Z,94930.94
2023-04-01T04:29:33.516Z,94940.72
2023-04-01T04:32:36.426Z,94929.44
2023-04-01T04:35:38.734Z,94934.75
2023-04-01T04:38:40.656Z,94935.78
2023-04-01T04:41:42.671Z,94927.84
2023-04-01T04:44:44.987Z,94935.13
2023-04-01T04:47:47.236Z,94934.44
2023-04-01T04:50:51.439Z,94929.13
2023-04-01T04:53:54.836Z,94935.94
2023-04-01T04:57:05.694Z,94925.66
2023-04-01T05:00:14.377Z,94927.16
2023-04-01T05:03:27.947Z,94920.16
2023-04-01T05:06:30.567Z,94914.53
2023-04-01T05:09:33.146Z,94916.00
2023-04-01T05:12:38.340Z,94921.66
2023-04-01T05:15:43.426Z,94932.44
2023-04-01T05:18:47.460Z,94935.25
2023-04-01T05:21:51.045Z,94921.28
2023-04-01T05:24:52.749Z,94926.44
2023-04-01T05:27:54.670Z,94939.34
2023-04-01T05:30:58.950Z,94932.88
2023-04-01T05:34:04.990Z,94931.56
2023-04-01T05:37:08.252Z,94938.34
2023-04-01T05:40:10.357Z,94929.91
2023-04-01T05:43:12.390Z,94930.53
2023-04-01T05:46:14.840Z,94932.38
2023-04-01T05:49:26.951Z,94926.72
2023-04-01T05:52:29.954Z,94931.34
2023-04-01T05:55:31.920Z,94936.50
2023-04-01T05:58:33.755Z,94930.03
2023-04-01T06:01:35.755Z,94942.66
2023-04-01T06:04:41.957Z,94941.81
2023-04-01T06:07:46.039Z,94937.34
2023-04-01T06:11:24.681Z,94940.81
2023-04-01T06:14:33.396Z,94928.66
2023-04-01T06:18:03.275Z,94939.63
2023-04-01T06:21:45.951Z,94932.28
2023-04-01T06:25:14.344Z,94919.13
2023-04-01T06:28:49.519Z,94921.28
2023-04-01T06:31:54.425Z,94933.38
2023-04-01T06:35:20.771Z,94933.06
2023-04-01T06:39:01.452Z,94932.50
2023-04-01T06:42:25.599Z,94934.13
2023-04-01T06:45:37.513Z,94933.59
2023-04-01T06:49:32.406Z,94933.09
2023-04-01T06:53:31.450Z,94926.41
2023-04-01T06:56:53.753Z,94935.03
2023-04-01T07:00:01.495Z,94930.69
2023-04-01T07:03:34.093Z,94939.59
2023-04-01T07:06:53.530Z,94930.91
2023-04-01T07:10:00.312Z,94937.56
2023-04-01T07:13:17.678Z,94933.19
2023-04-01T07:16:35.722Z,94938.78
2023-04-01T07:19:55.033Z,94926.97
2023-04-01T07:23:00.795Z,94942.22
2023-04-01T07:26:25.593Z,94941.66
2023-04-01T07:29:49.897Z,94939.28
2023-04-01T07:33:28.415Z,94946.13
2023-04-01T07:37:07.675Z,94934.75
2023-04-01T07:40:47.733Z,94942.41
2023-04-01T07:43:55.425Z,94941.19
2023-04-01T07:47:08.343Z,94946.84
2023-04-01T07:50:33.679Z,94928.28
2023-04-01T07:53:55.280Z,94948.38
2023-04-01T07:57:06.990Z,94941.88
2023-04-01T08:00:40.687Z,94935.16
2023-04-01T08:04:05.385Z,94941.44
2023-04-01T08:07:37.751Z,94949.91
2023-04-01T08:11:38.372Z,94944.22
2023-04-01T08:15:02.070Z,94941.19
2023-04-01T08:18:46.047Z,94948.72
2023-04-01T08:21:58.526Z,94941.66
2023-04-01T08:25:07.600Z,94946.25
2023-04-01T08:28:19.050Z,94943.69
2023-04-01T08:31:53.317Z,94925.84
2023-04-01T08:35:22.223Z,94928.22
2023-04-01T08:38:44.222Z,94920.41
2023-04-01T08:41:55.509Z,94929.25
2023-04-01T08:45:26.667Z,94913.31
2023-04-01T08:48:44.516Z,94912.38
2023-04-01T08:52:33.473Z,94914.91
2023-04-01T08:55:55.625Z,94893.28
2023-04-01T08:59:45.367Z,94916.09
2023-04-01T09:03:45.360Z,94919.84
2023-04-01T09:07:09.923Z,94918.00
2023-04-01T09:10:46.681Z,94917.84
2023-04-01T09:14:36.896Z,94921.56
2023-04-01T09:18:12.980Z,94924.31
2023-04-01T09:21:38.481Z,94900.19
2023-04-01T09:25:19.752Z,94905.94
2023-04-01T09:28:59.664Z,94909.06
2023-04-01T09:32:33.740Z,94913.84
2023-04-01T09:36:11.844Z,94901.13
2023-04-01T09:40:03.209Z,94917.59
2023-04-01T09:43:29.207Z,94919.81
2023-04-01T09:47:07.765Z,94882.53
2023-04-01T09:50:48.120Z,94899.38
2023-04-01T09:54:20.755Z,94916.03
2023-04-01T09:58:01.399Z,94917.13
2023-04-01T10:01:53.726Z,94888.56
2023-04-01T10:05:27.756Z,94900.44
2023-04-01T10:08:57.633Z,94904.97
2023-04-01T10:12:17.694Z,94927.34
2023-04-01T10:15:26.750Z,94919.44
2023-04-01T10:18:41.059Z,94917.16
2023-04-01T10:22:19.140Z,94924.44
2023-04-01T10:25:32.024Z,94904.31
2023-04-01T10:29:06.089Z,94933.03
2023-04-01T10:33:07.860Z,94914.66
2023-04-01T10:36:36.470Z,94926.91
2023-04-01T10:40:16.206Z,94935.22
2023-04-01T10:43:58.130Z,94936.81
2023-04-01T10:47:18.504Z,94927.25
2023-04-01T10:50:41.269Z,94933.72
2023-04-01T10:54:06.537Z,94931.91
2023-04-01T10:58:31.554Z,94937.88
2023-04-01T11:02:27.612Z,94929.03
2023-04-01T11:06:10.250Z,94939.69
2023-04-01T11:09:39.286Z,94941.66
2023-04-01T11:13:09.238Z,94928.50
2023-04-01T11:16:21.390Z,94924.91
2023-04-01T11:20:09.427Z,94935.34
2023-04-01T11:24:07.119Z,94933.84
2023-04-01T11:27:50.618Z,94935.41
2023-04-01T11:31:10.656Z,94929.09
2023-04-01T11:34:52.389Z,94933.94
2023-04-01T11:38:29.327Z,94933.00
2023-04-01T11:41:33.433Z,94932.19
2023-04-01T11:45:12.254Z,94926.25
2023-04-01T11:48:18.385Z,94928.69
2023-04-01T11:52:06.850Z,94929.19
2023-04-01T11:55:55.265Z,94925.66
2023-04-01T11:59:36.296Z,94928.31
2023-04-01T12:03:16.211Z,94927.94
2023-04-01T12:07:04.496Z,94939.97
2023-04-01T12:10:28.351Z,94932.47
2023-04-01T12:13:48.376Z,94936.13
2023-04-01T12:17:29.945Z,94932.28
2023-04-01T12:21:01.853Z,94934.25
2023-04-01T12:24:10.014Z,94936.19
2023-04-01T12:27:22.523Z,94939.47
2023-04-01T12:30:48.995Z,94938.78
2023-04-01T12:34:28.562Z,94946.75
2023-04-01T12:37:37.179Z,94946.94
2023-04-01T12:40:57.578Z,94947.75
2023-04-01T12:44:39.564Z,94948.66
2023-04-01T12:48:06.118Z,94974.34
2023-04-01T12:51:20.269Z,94954.72
2023-04-01T12:54:48.370Z,94944.50
2023-04-01T12:57:59.674Z,94947.00
2023-04-01T13:01:17.438Z,94944.50
2023-04-01T13:04:56.087Z,94945.16
2023-04-01T13:08:07.281Z,94945.44
2023-04-01T13:11:24.239Z,94954.19
2023-04-01T13:14:38.447Z,94942.81
2023-04-01T13:18:01.812Z,94944.28
2023-04-01T13:21:34.128Z,94949.06
2023-04-01T13:24:52.748Z,94951.28
2023-04-01T13:28:10.430Z,94939.06
2023-04-01T13:31:32.341Z,94950.38
2023-04-01T13:34:57.211Z,94948.63
2023-04-01T13:38:14.592Z,94943.19
2023-04-01T13:41:26.696Z,94955.34
2023-04-01T13:44:54.547Z,94958.28
2023-04-01T13:48:18.540Z,94948.53
2023-04-01T13:51:45.903Z,94956.91
2023-04-01T13:55:06.611Z,94951.03
2023-04-01T13:58:40.149Z,94965.44
2023-04-01T14:02:27.066Z,94964.91
2023-04-01T14:05:45.654Z,94970.69
2023-04-01T14:09:22.374Z,94965.00
2023-04-01T14:12:46.179Z,94964.44
2023-04-01T14:15:57.317Z,94964.06
2023-04-01T14:19:18.523Z,94957.16
2023-04-01T14:22:48.715Z,94961.03
2023-04-01T14:26:29.519Z,94972.81
2023-04-01T14:30:11.120Z,94965.06
2023-04-01T14:33:41.958Z,94971.59
2023-04-01T14:37:38.324Z,94972.06
2023-04-01T14:41:11.734Z,94979.41
2023-04-01T14:45:01.445Z,94972.50
2023-04-01T14:48:25.374Z,94974.00
2023-04-01T14:51:40.367Z,94976.00
2023-04-01T14:54:46.222Z,94982.19
2023-04-01T14:58:06.138Z,94983.00
2023-04-01T15:01:33.692Z,94973.88
2023-04-01T15:05:29.835Z,94981.63
2023-04-01T15:08:45.939Z,94971.66
2023-04-01T15:12:06.443Z,94978.28
2023-04-01T15:15:36.484Z,94966.34
2023-04-01T15:18:54.993Z,94975.66
2023-04-01T15:22:25.630Z,94974.69
2023-04-01T15:26:03.569Z,94982.06
2023-04-01T15:29:34.435Z,94988.38
2023-04-01T15:32:47.129Z,94982.78
2023-04-01T15:36:06.332Z,94999.53
2023-04-01T15:39:20.609Z,94993.03
2023-04-01T15:42:29.998Z,94997.66
2023-04-01T15:45:57.847Z,95008.41
2023-04-01T15:49:40.183Z,95012.19
2023-04-01T15:52:42.129Z,95013.00
2023-04-01T15:56:08.790Z,95013.56
2023-04-01T15:59:31.024Z,94999.00
2023-04-01T16:03:09.042Z,95006.28
2023-04-01T16:06:11.202Z,95011.72
2023-04-01T16:09:40.908Z,95019.34
2023-04-01T16:13:03.433Z,95011.72
2023-04-01T16:16:24.835Z,95020.09
2023-04-01T16:19:46.105Z,95018.53
2023-04-01T16:23:05.357Z,95024.16
2023-04-01T16:26:20.520Z,95026.94
2023-04-01T16:29:53.949Z,95029.72
2023-04-01T16:33:23.637Z,95021.44
2023-04-01T16:36:44.656Z,95021.00
2023-04-01T16:40:24.341Z,95025.41
2023-04-01T16:43:55.795Z,95029.63
2023-04-01T16:47:08.589Z,95025.25
2023-04-01T16:50:15.012Z,95025.59
2023-04-01T16:53:37.639Z,95033.34
2023-04-01T16:56:55.786Z,95024.03
2023-04-01T17:00:36.479Z,95031.03
2023-04-01T17:03:44.893Z,95029.28
2023-04-01T17:07:21.566Z,95034.78
2023-04-01T17:10:45.051Z,95039.00
2023-04-01T17:14:02.168Z,95034.41
2023-04-01T17:17:11.994Z,95042.06
2023-04-01T17:20:38.660Z,95044.91
2023-04-01T17:23:51.966Z,95046.09
2023-04-01T17:27:11.892Z,95040.47
2023-04-01T17:30:36.761Z,95061.31
2023-04-01T17:34:03.114Z,95055.38
2023-04-01T17:37:23.296Z,95052.22
2023-04-01T17:40:30.870Z,95055.22
2023-04-01T17:43:54.053Z,95058.72
2023-04-01T17:47:12.374Z,95054.59
2023-04-01T17:50:21.964Z,95066.72
2023-04-01T17:53:59.992Z,95073.25
2023-04-01T17:57:27.692Z,95081.25
2023-04-01T18:00:55.873Z,95087.59
2023-04-01T18:04:27.087Z,95088.78
2023-04-01T18:07:50.302Z,95088.59
2023-04-01T18:11:17.151Z,95095.94
2023-04-01T18:14:42.907Z,95090.97
2023-04-01T18:17:57.760Z,95097.66
2023-04-01T18:21:19.992Z,95098.50
2023-04-01T18:24:31.534Z,95102.38
2023-04-01T18:27:39.748Z,95106.19
2023-04-01T18:30:41.716Z,95106.53
2023-04-01T18:34:09.022Z,95117.41
2023-04-01T18:37:33.388Z,95114.91
2023-04-01T18:40:35.185Z,95106.91
2023-04-01T18:44:28.665Z,95123.91
2023-04-01T18:47:47.989Z,95128.41
2023-04-01T18:51:47.344Z,95139.06
2023-04-01T18:55:26.369Z,95140.22
2023-04-01T18:58:46.502Z,95143.09
2023-04-01T19:02:08.179Z,95144.28
2023-04-01T19:05:15.285Z,95152.44
2023-04-01T19:08:33.481Z,95149.94
2023-04-01T19:11:56.320Z,95167.25
2023-04-01T19:15:36.167Z,95170.91
2023-04-01T19:18:54.099Z,95171.06
2023-04-01T19:21:59.257Z,95166.75
2023-04-01T19:25:25.887Z,95165.09
2023-04-01T19:28:38.686Z,95177.78
2023-04-01T19:32:10.978Z,95172.63
2023-04-01T19:35:38.065Z,95178.13
2023-04-01T19:38:41.450Z,95177.66
2023-04-01T19:42:07.029Z,95168.81
2023-04-01T19:45:47.547Z,95183.47
2023-04-01T19:49:05.421Z,95179.97
2023-04-01T19:52:19.205Z,95187.50
2023-04-01T19:56:02.273Z,95184.34
2023-04-01T19:59:19.970Z,95189.88
2023-04-01T20:02:55.086Z,95193.69
2023-04-01T20:06:07.311Z,95197.19
2023-04-01T20:09:52.101Z,95191.38
2023-04-01T20:13:27.320Z,95193.41
2023-04-01T20:17:07.373Z,95198.22
2023-04-01T20:20:11.749Z,95206.22
2023-04-01T20:23:54.410Z,95193.03
2023-04-01T20:27:08.750Z,95200.38
2023-04-01T20:30:37.774Z,95202.84
2023-04-01T20:34:37.063Z,95208.72
2023-04-01T20:37:41.422Z,95209.72
2023-04-01T20:40:50.599Z,95204.91
2023-04-01T20:44:12.002Z,95212.53
2023-04-01T20:47:35.497Z,95220.06
2023-04-01T20:50:50.242Z,95208.91
2023-04-01T20:53:59.702Z,95219.75
2023-04-01T20:57:17.940Z,95223.41
2023-04-01T21:00:37.885Z,95226.22
2023-04-01T21:04:01.608Z,95229.06
2023-04-01T21:07:46.503Z,95225.56
2023-04-01T21:10:55.890Z,95240.69
2023-04-01T21:14:17.409Z,95240.69
2023-04-01T21:17:38.130Z,95240.69
2023-04-01T21:21:17.057Z,95241.88
2023-04-01T21:24:43.959Z,95252.53
2023-04-01T21:28:00.136Z,95259.69
2023-04-01T21:31:06.108Z,95260.69
2023-04-01T21:34:26.901Z,95261.50
2023-04-01T21:37:42.850Z,95263.50
2023-04-01T21:41:19.992Z,95265.16
2023-04-01T21:44:38.138Z,95269.66
2023-04-01T21:48:06.301Z,95270.81
2023-04-01T21:51:19.851Z,95277.13
2023-04-01T21:54:39.459Z,95287.16
2023-04-01T21:58:19.390Z,95287.31
2023-04-01T22:01:53.086Z,95283.31
2023-04-01T22:05:06.347Z,95277.34
2023-04-01T22:08:38.867Z,95282.97
2023-04-01T22:11:45.833Z,95297.47
2023-04-01T22:14:54.163Z,95290.13
2023-04-01T22:18:19.174Z,95293.97
2023-04-01T22:21:52.926Z,95301.28
2023-04-01T22:25:21.891Z,95292.78
2023-04-01T22:28:30.611Z,95298.31
2023-04-01T22:31:48.836Z,95302.94
2023-04-01T22:35:18.573Z,95293.47
2023-04-01T22:38:48.396Z,95304.63
2023-04-01T22:42:42.898Z,95298.78
2023-04-01T22:46:13.990Z,95300.97
2023-04-01T22:49:18.270Z,95295.97
2023-04-01T22:52:28.975Z,95295.47
2023-04-01T22:55:35.149Z,95302.78
2023-04-01T22:58:47.601Z,95298.59
2023-04-01T23:01:57.381Z,95305.59
2023-04-01T23:05:03.726Z,95304.94
2023-04-01T23:08:50.574Z,95305.09
2023-04-01T23:11:52.854Z,95301.78
2023-04-01T23:14:59.519Z,95297.13
2023-04-01T23:18:16.100Z,95314.38
2023-04-01T23:21:52.874Z,95320.53
2023-04-01T23:25:01.748Z,95313.41
2023-04-01T23:28:15.411Z,95320.72
2023-04-01T23:31:34.189Z,95325.84
2023-04-01T23:34:36.639Z,95328.34
2023-04-01T23:37:38.458Z,95322.56
2023-04-01T23:40:41.475Z,95324.56
2023-04-01T23:43:46.331Z,95336.19
2023-04-01T23:46:49.836Z,95328.69
2023-04-01T23:49:57.643Z,95334.00
2023-04-01T23:53:29.175Z,95334.00
2023-04-01T23:57:05.705Z,95331.19
